CroatiaFixed distance
Istria 100 by UTMB - 69km
12 Apr2025
Distance
69km
Finishers
563427 men136 women
Winning time
5:26:31h
Median pace
6.62km/h
Pace distribution
563 finishers · 4.61–12.68 km/h · mean 6.81
Every finisher ran the same 69 km course, so these paces are directly comparable.
Histogram of finisher pace. 563 finishers ranged from 4.61 to 12.68 kilometres per hour, with a mean of 6.81 and a median of 6.62. The busiest band is 6.0 to 6.5 kilometres per hour, with 98 finishers.
Results
Ranks 101–150 of 563
| Rank | Runner | Time | Pace | Cat. | Placing |
|---|---|---|---|---|---|
| 101 | 8:47:05h | 7.86 | M40 | 90th M · 13th M40 | |
| 102 | 8:47:09h | 7.85 | M50 | 91st M · 6th M50 | |
| 103 | ART of Run | 8:47:17h | 7.85 | M55 | 92nd M · 3rd M55 |
| 104 | Triathlon Team Ticino | 8:47:39h | 7.85 | M45 | 93rd M · 6th M45 |
| 105 | 8:48:43h | 7.83 | W23 | 12th F · 5th W23 | |
| 106 | 8:48:57h | 7.83 | M40 | 94th M · 14th M40 | |
| 107 | Akez Kopřivnice | 8:50:20h | 7.81 | M23 | 95th M · 48th M23 |
| 108 | K.N.N.R. | 8:56:48h | 7.71 | M40 | 96th M · 15th M40 |
| 109 | 8:57:11h | 7.71 | M45 | 97th M · 7th M45 | |
| 110 | 8:57:33h | 7.70 | M23 | 98th M · 49th M23 | |
| 111 | 8:59:08h | 7.68 | M50 | 99th M · 7th M50 | |
| 112 | #Bergziegenhd | 9:00:51h | 7.66 | M40 | 100th M · 16th M40 |
| 113 | BK Ludgeřovice | 9:01:04h | 7.65 | M23 | 101st M · 50th M23 |
| 114 | 9:01:19h | 7.65 | W23 | 13th F · 6th W23 | |
| 114 | 9:01:19h | 7.65 | M40 | 102nd M · 17th M40 | |
| 116 | 9:01:27h | 7.65 | M40 | 103rd M · 18th M40 | |
| 117 | Trail IS OUR WAY | 9:02:26h | 7.63 | W45 | 14th F · 3rd W45 |
| 118 | AK Sljeme | 9:02:41h | 7.63 | M55 | 104th M · 4th M55 |
| 119 | UMK Mazatori | 9:02:46h | 7.63 | M45 | 105th M · 8th M45 |
| 120 | Anatrotto Boys | 9:02:51h | 7.63 | M35 | 106th M · 19th M35 |
| 121 | 9:02:56h | 7.63 | M23 | 107th M · 51st M23 | |
| 122 | 9:03:59h | 7.61 | M23 | 108th M · 52nd M23 | |
| 123 | M&P Medical Team | 9:04:11h | 7.61 | M50 | 109th M · 8th M50 |
| 124 | Scenic Trail | 9:04:52h | 7.60 | W50 | 15th F · 1st W50 |
| 125 | Trifunfit Team | 9:05:17h | 7.59 | M40 | 110th M · 19th M40 |
| 126 | 9:05:39h | 7.59 | M40 | 111th M · 20th M40 | |
| 127 | TTK Strka | 9:05:58h | 7.58 | M45 | 112th M · 9th M45 |
| 128 | Team Badass Running | 9:06:18h | 7.58 | W40 | 16th F · 1st W40 |
| 129 | Team Trail AIX les Bains | 9:09:03h | 7.54 | M35 | 113th M · 20th M35 |
| 130 | 9:09:14h | 7.54 | M23 | 114th M · 53rd M23 | |
| 131 | AK Borik Bjelovar | 9:09:47h | 7.53 | M45 | 115th M · 10th M45 |
| 132 | 9:09:58h | 7.53 | M23 | 116th M · 54th M23 | |
| 133 | Green Runnings | 9:10:30h | 7.52 | M40 | 117th M · 21st M40 |
| 134 | 9:10:32h | 7.52 | M23 | 118th M · 55th M23 | |
| 135 | AK ŽUmberak | 9:10:43h | 7.52 | M45 | 119th M · 11th M45 |
| 136 | 9:11:25h | 7.51 | M23 | 120th M · 56th M23 | |
| 137 | 9:11:28h | 7.51 | M23 | 121st M · 57th M23 | |
| 138 | Durmitor Runners | 9:11:57h | 7.50 | M23 | 122nd M · 58th M23 |
| 139 | Bächlistauverein | 9:12:12h | 7.50 | M23 | 123rd M · 59th M23 |
| 140 | Wild Souls | 9:12:13h | 7.50 | M40 | 124th M · 22nd M40 |
| 141 | Running Junkies Amsterdam | 9:12:48h | 7.49 | M35 | 125th M · 21st M35 |
| 142 | Loznički Trkači | 9:13:07h | 7.49 | M50 | 126th M · 9th M50 |
| 143 | Kraji.Eu - HR-Cro.com | 9:13:25h | 7.48 | M50 | 127th M · 10th M50 |
| 144 | Kamil Leśniak Team | 9:14:11h | 7.47 | M23 | 128th M · 60th M23 |
| 145 | TK Maraton | 9:14:46h | 7.46 | M35 | 129th M · 22nd M35 |
| 146 | Runningpedia/ Brasov R... | 9:15:30h | 7.45 | W23 | 17th F · 7th W23 |
| 147 | Doğuş Koşu Kulübü | 9:16:29h | 7.44 | W23 | 18th F · 8th W23 |
| 148 | 9:17:04h | 7.43 | W35 | 19th F · 6th W35 | |
| 149 | T.J. Sokol Spořilov | 9:17:17h | 7.43 | M40 | 130th M · 23rd M40 |
| 150 | Läuferclub Kaltern | 9:17:30h | 7.43 | M23 | 131st M · 61st M23 |
- 10190th M · 13th M40Time8:47:05hPace7.86Cat.M40
- 10291st M · 6th M50Time8:47:09hPace7.85Cat.M50
- 103ART of Run92nd M · 3rd M55Time8:47:17hPace7.85Cat.M55
- 104Triathlon Team Ticino93rd M · 6th M45Time8:47:39hPace7.85Cat.M45
- 10512th F · 5th W23Time8:48:43hPace7.83Cat.W23
- 10694th M · 14th M40Time8:48:57hPace7.83Cat.M40
- 107Akez Kopřivnice95th M · 48th M23Time8:50:20hPace7.81Cat.M23
- 108K.N.N.R.96th M · 15th M40Time8:56:48hPace7.71Cat.M40
- 10997th M · 7th M45Time8:57:11hPace7.71Cat.M45
- 11098th M · 49th M23Time8:57:33hPace7.70Cat.M23
- 11199th M · 7th M50Time8:59:08hPace7.68Cat.M50
- 112#Bergziegenhd100th M · 16th M40Time9:00:51hPace7.66Cat.M40
- 113BK Ludgeřovice101st M · 50th M23Time9:01:04hPace7.65Cat.M23
- 11413th F · 6th W23Time9:01:19hPace7.65Cat.W23
- 114102nd M · 17th M40Time9:01:19hPace7.65Cat.M40
- 116103rd M · 18th M40Time9:01:27hPace7.65Cat.M40
- 117Trail IS OUR WAY14th F · 3rd W45Time9:02:26hPace7.63Cat.W45
- 118AK Sljeme104th M · 4th M55Time9:02:41hPace7.63Cat.M55
- 119UMK Mazatori105th M · 8th M45Time9:02:46hPace7.63Cat.M45
- 120Anatrotto Boys106th M · 19th M35Time9:02:51hPace7.63Cat.M35
- 121107th M · 51st M23Time9:02:56hPace7.63Cat.M23
- 122108th M · 52nd M23Time9:03:59hPace7.61Cat.M23
- 123M&P Medical Team109th M · 8th M50Time9:04:11hPace7.61Cat.M50
- 124Scenic Trail15th F · 1st W50Time9:04:52hPace7.60Cat.W50
- 125Trifunfit Team110th M · 19th M40Time9:05:17hPace7.59Cat.M40
- 126111th M · 20th M40Time9:05:39hPace7.59Cat.M40
- 127TTK Strka112th M · 9th M45Time9:05:58hPace7.58Cat.M45
- 128Team Badass Running16th F · 1st W40Time9:06:18hPace7.58Cat.W40
- 129Team Trail AIX les Bains113th M · 20th M35Time9:09:03hPace7.54Cat.M35
- 130114th M · 53rd M23Time9:09:14hPace7.54Cat.M23
- 131AK Borik Bjelovar115th M · 10th M45Time9:09:47hPace7.53Cat.M45
- 132116th M · 54th M23Time9:09:58hPace7.53Cat.M23
- 133Green Runnings117th M · 21st M40Time9:10:30hPace7.52Cat.M40
- 134118th M · 55th M23Time9:10:32hPace7.52Cat.M23
- 135AK ŽUmberak119th M · 11th M45Time9:10:43hPace7.52Cat.M45
- 136120th M · 56th M23Time9:11:25hPace7.51Cat.M23
- 137121st M · 57th M23Time9:11:28hPace7.51Cat.M23
- 138Durmitor Runners122nd M · 58th M23Time9:11:57hPace7.50Cat.M23
- 139Bächlistauverein123rd M · 59th M23Time9:12:12hPace7.50Cat.M23
- 140Wild Souls124th M · 22nd M40Time9:12:13hPace7.50Cat.M40
- 141Running Junkies Amsterdam125th M · 21st M35Time9:12:48hPace7.49Cat.M35
- 142Loznički Trkači126th M · 9th M50Time9:13:07hPace7.49Cat.M50
- 143Kraji.Eu - HR-Cro.com127th M · 10th M50Time9:13:25hPace7.48Cat.M50
- 144Kamil Leśniak Team128th M · 60th M23Time9:14:11hPace7.47Cat.M23
- 145TK Maraton129th M · 22nd M35Time9:14:46hPace7.46Cat.M35
- 146Runningpedia/ Brasov R...17th F · 7th W23Time9:15:30hPace7.45Cat.W23
- 147Doğuş Koşu Kulübü18th F · 8th W23Time9:16:29hPace7.44Cat.W23
- 14819th F · 6th W35Time9:17:04hPace7.43Cat.W35
- 149T.J. Sokol Spořilov130th M · 23rd M40Time9:17:17hPace7.43Cat.M40
- 150Läuferclub Kaltern131st M · 61st M23Time9:17:30hPace7.43Cat.M23
Showing ranks 101–150 of 563